Deer Park, Illinois
Current Conditions -  °F | °C
As of 4:52 AM on Sunday 23 Nov 2014 (Local Time) from KPWK Reporting Station
Broken Clouds Broken Clouds  
Wind Chill: 44°   Ceiling: 5500
Heat Index: 49°   Visibility: 9mi
Dew Point: 44°   Wind: 12mph
Humidity: 83%   Direction: 190°S
Pressure: 29.77"   Gusts: NA
Location:  42.1512°N, 88.1636°W
Report Text: KPWK 231052Z AUTO 19010KT 9SM SCT022 BKN055 09/07 A2977 RMK AO2 SLP082 T00940067
Loading
Personal Weather Stations






























Interactive Weather Map New forecast layout! Learn more

10-Day Weather Forecast

Advertisements
Track Severe Weather on mobile